Гумрак

Карта отелей и гостиниц, располагающихся рядом с аэропортом Гумрак :

Гумрак
Волгоград
Волгоградская область 48° 46' 58.9692" N, 44° 20' 39.6708" E
Код аэродрома ИКАО
URWW
Код аэродрома RU
УРВВ
Координаты
N48.78305° E044.34435°
Превышение над уровнем моря
145
Основная полоса
06/24
Курс магнитный
055,2/235,2
Длина основной ВПП
2800
Ширина основной ВПП
45
Покрытие основной ВПП
Твёрдое (асфальтобетон)
Освещение ВПП
Постоянное
Тип: 
Аэродром
Класс аэродрома: 
Международный
Принадлежность: 
ГА
Статус: 
Действующий
Страна: 
Россия
Регион: 
Волгоградская область
Город: 
Волгоград
Погода: 

Авиационная погода в Волгограде

Регион: 
Погода METAR: 
URWW 061030Z 08004MPS 0750 0450NE R06/1000N -FZDZ FZFG VV001 M00/M01 Q1020 R06/290057 NOSIG RMK QBB050 OBST OBSC
Время наблюдения
2021-12-06T10:30:00Z
Температура C
0.0
Точка росы
-1.0
Направление ветра
80
Скорость ветра (узлы)
8
Метео видимость
0.47
Явления погоды
-FZDZ FZFG
Условия полета
LIFR
Аэропорт подробнее: 

Найти трансфер

С помощью этой формы Вы можете найти трансфер из аэропорта Гумрак в город, аэропорт или вокзал:

Карта места

Javascript is required to view this map.

Погода в аэропортах:

Авиационная погода в Миккели

Регион: 
Погода METAR: 
EFMI 061020Z AUTO 10010KT 9999 -SN FEW015 OVC019 M08/M11 Q1022
Время наблюдения
2021-12-06T10:20:00Z
Температура C
-8.0
Точка росы
-11.0
Направление ветра
100
Скорость ветра (узлы)
10
Метео видимость
6.21
Явления погоды
-SN
Условия полета
MVFR

Авиационная погода в Москва - Шереметьево

Погода METAR: 
UUEE 061030Z 08005MPS 6000 2500SW BR OVC005 M07/M08 Q1020 R06R/520340 R06C/520340 TEMPO 1000 -FZDZ BR
Время наблюдения
2021-12-06T10:30:00Z
Температура C
-7.0
Точка росы
-8.0
Направление ветра
80
Скорость ветра (узлы)
10
Метео видимость
3.73
Явления погоды
BR
Условия полета
IFR
Аэропорт подробнее: 

Авиационная погода в Савонлинна

Регион: 
Погода METAR: 
EFSA 061020Z AUTO 09009KT 060V130 9999 -SN BKN013 OVC033 M08/M10 Q1024
Время наблюдения
2021-12-06T10:20:00Z
Температура C
-8.0
Точка росы
-10.0
Направление ветра
90
Скорость ветра (узлы)
9
Метео видимость
6.21
Явления погоды
-SN
Условия полета
MVFR

Авиационная погода в Гродно

Регион: 
Погода METAR: 
UMMG 060800Z 05003MPS 3300 -SN BR OVC008 M03/M03 Q1012 NOSIG
Время наблюдения
2021-12-06T08:00:00Z
Температура C
-3.0
Точка росы
-3.0
Направление ветра
50
Скорость ветра (узлы)
6
Метео видимость
2.05
Явления погоды
-SN BR
Условия полета
IFR
Аэропорт подробнее: